createdAt,value
2023-01-11T02:16:36.612Z,31.78
2023-01-11T02:17:36.604Z,31.78
2023-01-11T02:18:36.593Z,31.78
2023-01-11T02:19:36.545Z,31.77
2023-01-11T02:20:36.506Z,31.77
2023-01-11T02:21:36.477Z,31.78
2023-01-11T02:22:36.470Z,31.78
2023-01-11T02:23:36.452Z,31.78
2023-01-11T02:24:36.420Z,31.78
2023-01-11T02:25:36.383Z,31.77
2023-01-11T02:26:36.362Z,31.80
2023-01-11T02:27:36.332Z,31.78
2023-01-11T02:28:36.324Z,31.78
2023-01-11T02:30:36.255Z,31.80
2023-01-11T02:31:36.419Z,31.78
2023-01-11T02:32:36.199Z,31.77
2023-01-11T02:33:36.201Z,31.77
2023-01-11T02:34:36.130Z,31.75
2023-01-11T02:35:36.140Z,31.77
2023-01-11T02:36:36.107Z,31.76
2023-01-11T02:37:36.052Z,31.77
2023-01-11T02:38:36.027Z,31.76
2023-01-11T02:39:36.009Z,31.80
2023-01-11T02:40:35.996Z,31.77
2023-01-11T02:41:35.950Z,31.78
2023-01-11T02:42:35.922Z,31.77
2023-01-11T02:43:35.915Z,31.78
2023-01-11T02:44:35.902Z,31.76
2023-01-11T02:45:35.895Z,31.78
2023-01-11T02:46:35.886Z,31.77
2023-01-11T02:47:35.815Z,31.75
2023-01-11T02:48:35.778Z,31.76
2023-01-11T02:49:35.764Z,31.77
2023-01-11T02:50:35.735Z,31.77
2023-01-11T02:51:35.714Z,31.75
2023-01-11T02:52:35.702Z,31.78
2023-01-11T02:53:35.668Z,31.75
2023-01-11T02:54:35.673Z,31.75
2023-01-11T02:55:35.631Z,31.76
2023-01-11T02:56:35.612Z,31.77
2023-01-11T02:57:35.590Z,31.76
2023-01-11T02:58:35.574Z,31.76
2023-01-11T02:59:35.565Z,31.77
2023-01-11T03:00:35.510Z,31.76
2023-01-11T03:01:35.594Z,31.77
2023-01-11T03:02:35.534Z,31.77
2023-01-11T03:03:35.429Z,31.78
2023-01-11T03:04:35.412Z,31.75
2023-01-11T03:05:35.374Z,31.77
2023-01-11T03:06:35.409Z,31.76
2023-01-11T03:07:35.333Z,31.75
2023-01-11T03:08:35.308Z,31.77
2023-01-11T03:09:35.267Z,31.77
2023-01-11T03:10:35.243Z,31.77
2023-01-11T03:11:35.209Z,31.78
2023-01-11T03:12:35.190Z,31.76
2023-01-11T05:37:31.182Z,29.21
2023-01-11T06:01:30.983Z,25.21
2023-01-11T06:03:30.964Z,25.39
2023-01-11T06:04:30.936Z,25.38
2023-01-11T06:05:30.887Z,25.82
2023-01-11T06:06:30.920Z,25.39
2023-01-11T06:07:30.856Z,25.29
2023-01-11T06:08:30.864Z,25.47
2023-01-11T06:09:30.823Z,25.15
2023-01-11T06:10:30.817Z,25.11
2023-01-11T06:11:30.792Z,25.28
2023-01-11T06:12:30.778Z,24.87
2023-01-11T06:13:30.752Z,24.77
2023-01-11T06:14:30.724Z,24.78
2023-01-11T06:15:30.710Z,24.71
2023-01-11T06:16:30.810Z,24.60
2023-01-11T06:17:30.669Z,24.66
2023-01-11T06:18:30.653Z,24.70
2023-01-11T06:19:30.636Z,24.63
2023-01-11T06:20:30.624Z,23.96
2023-01-11T06:21:30.593Z,23.51
2023-01-11T06:22:30.614Z,23.44
2023-01-11T06:23:30.579Z,23.77
2023-01-11T06:24:30.529Z,23.90
2023-01-11T06:25:30.520Z,23.84
2023-01-11T06:26:30.474Z,23.81
2023-01-11T06:27:30.448Z,23.81
2023-01-11T06:28:30.449Z,23.71
2023-01-11T06:29:30.408Z,23.79
2023-01-11T06:30:30.466Z,24.07
2023-01-11T06:31:30.388Z,24.32
2023-01-11T06:32:30.344Z,24.41
2023-01-11T06:33:30.369Z,24.59
2023-01-11T06:34:30.312Z,24.84
2023-01-11T06:35:30.300Z,24.86
2023-01-11T06:36:30.324Z,24.37
2023-01-11T06:37:30.275Z,23.46
2023-01-11T06:38:30.271Z,23.28
2023-01-11T06:39:30.277Z,23.17
2023-01-11T06:40:30.244Z,22.46
2023-01-11T06:41:30.235Z,22.17
2023-01-11T06:42:30.256Z,22.99
2023-01-11T06:43:30.251Z,23.24
2023-01-11T06:44:30.248Z,24.16
2023-01-11T06:45:30.288Z,24.58
2023-01-11T06:46:30.270Z,24.91
2023-01-11T06:47:30.226Z,25.73
2023-01-11T06:48:30.214Z,25.89
2023-01-11T06:50:30.180Z,26.58
2023-01-11T06:51:30.170Z,27.09
2023-01-11T06:52:30.165Z,27.65
2023-01-11T06:53:30.138Z,27.72
2023-01-11T06:54:30.145Z,27.86
2023-01-11T06:55:30.124Z,28.00
2023-01-11T06:56:30.082Z,27.80
2023-01-11T06:57:30.069Z,28.05
2023-01-11T06:58:30.125Z,28.10
2023-01-11T06:59:30.025Z,28.34
2023-01-11T07:26:31.059Z,30.42
2023-01-11T07:27:29.911Z,30.14
2023-01-11T07:28:29.927Z,30.23
2023-01-11T07:29:30.675Z,30.60
2023-01-11T07:30:29.940Z,29.98
2023-01-11T07:31:29.653Z,29.79
2023-01-11T07:32:29.522Z,30.36
2023-01-11T07:33:29.472Z,30.00
2023-01-11T07:34:29.486Z,30.66
2023-01-11T07:35:29.466Z,30.66
2023-01-11T07:36:29.388Z,30.82
2023-01-11T07:37:29.653Z,30.97
2023-01-11T07:38:29.354Z,30.83
2023-01-11T07:39:42.992Z,31.05
2023-01-11T07:40:30.340Z,30.96
2023-01-11T07:41:29.282Z,31.27
2023-01-11T07:42:30.168Z,30.30
2023-01-11T07:43:30.798Z,30.71
2023-01-11T07:44:29.179Z,30.48
2023-01-11T07:45:40.852Z,29.96
2023-01-11T07:46:29.240Z,29.42
2023-01-11T07:47:29.084Z,28.29
2023-01-11T07:48:29.054Z,25.10
2023-01-11T07:49:29.018Z,22.11
2023-01-11T07:50:29.128Z,21.85
2023-01-11T07:51:28.992Z,23.32
2023-01-11T07:52:28.986Z,24.24
2023-01-11T07:53:28.963Z,24.90
2023-01-11T07:54:28.944Z,25.65
2023-01-11T07:56:31.107Z,26.01
2023-01-11T07:57:31.323Z,26.26
2023-01-11T07:58:28.915Z,26.43
2023-01-11T07:59:28.852Z,26.42
2023-01-11T08:00:28.844Z,26.56
2023-01-11T08:01:28.815Z,26.28
2023-01-11T08:02:28.909Z,26.68
2023-01-11T08:03:28.901Z,27.30
2023-01-11T08:04:28.755Z,27.06
2023-01-11T08:05:28.763Z,27.19
2023-01-11T08:06:28.700Z,27.00
2023-01-11T08:07:28.698Z,27.11
2023-01-11T08:08:28.651Z,27.23
2023-01-11T08:09:28.619Z,27.45
2023-01-11T08:10:28.635Z,27.57
2023-01-11T08:11:28.640Z,27.30
2023-01-11T08:12:31.127Z,27.30
2023-01-11T08:13:29.180Z,27.53
2023-01-11T08:20:28.511Z,28.78
2023-01-11T08:21:30.013Z,28.58
2023-01-11T08:22:28.413Z,28.76
2023-01-11T08:23:28.416Z,28.90
2023-01-11T08:24:28.368Z,28.95
2023-01-11T08:25:28.443Z,29.04
2023-01-11T08:26:28.320Z,29.27
2023-01-11T08:27:28.240Z,29.22
2023-01-11T08:28:28.202Z,29.23
2023-01-11T08:29:28.173Z,29.09
2023-01-11T08:30:28.225Z,29.27
2023-01-11T08:31:28.222Z,29.38
2023-01-11T08:32:28.073Z,29.44
2023-01-11T08:33:28.017Z,29.40
2023-01-11T08:34:28.071Z,29.49
2023-01-11T08:35:27.934Z,29.78
2023-01-11T08:36:28.276Z,30.09
2023-01-11T08:37:27.880Z,30.22
2023-01-11T08:38:28.452Z,30.31
2023-01-11T08:39:27.903Z,29.88
2023-01-11T08:40:28.027Z,29.64
2023-01-11T08:41:27.782Z,29.54
2023-01-11T08:42:27.717Z,29.84
2023-01-11T08:43:27.686Z,29.51
2023-01-11T08:44:34.378Z,29.45
2023-01-11T08:45:28.598Z,29.51
2023-01-11T08:46:27.584Z,29.32
2023-01-11T08:47:27.532Z,29.09
2023-01-11T08:48:27.469Z,28.89
2023-01-11T08:49:27.437Z,28.96
2023-01-11T08:50:27.555Z,29.09
2023-01-11T08:51:27.415Z,28.98
2023-01-11T08:52:27.382Z,28.89
2023-01-11T08:53:27.323Z,28.61
2023-01-11T08:54:27.269Z,28.61
2023-01-11T08:55:27.234Z,28.49
2023-01-11T08:56:27.246Z,28.50
2023-01-11T08:57:27.163Z,28.24
2023-01-11T08:58:27.161Z,28.20
2023-01-11T08:59:27.117Z,28.20
2023-01-11T09:00:27.136Z,28.13
2023-01-11T09:01:27.080Z,28.13
2023-01-11T09:02:27.028Z,28.09
2023-01-11T09:03:26.978Z,27.88
2023-01-11T09:04:26.932Z,27.95
2023-01-11T09:05:26.911Z,27.92
2023-01-11T09:06:26.907Z,27.75
2023-01-11T09:07:26.861Z,27.54
2023-01-11T09:08:26.815Z,27.05
2023-01-11T09:09:29.123Z,26.83
2023-01-11T09:10:29.422Z,26.92
2023-01-11T09:11:28.882Z,26.78
2023-01-11T09:12:28.861Z,26.95
2023-01-11T09:13:26.649Z,26.87
2023-01-11T09:14:26.674Z,27.21
2023-01-11T09:15:26.608Z,26.97
2023-01-11T09:16:26.601Z,26.97
2023-01-11T09:17:26.531Z,27.08
2023-01-11T09:18:26.517Z,26.94
2023-01-11T09:19:26.492Z,26.86
2023-01-11T09:20:26.529Z,26.29
2023-01-11T09:21:26.441Z,25.81
2023-01-11T09:22:26.397Z,25.53
2023-01-11T09:23:26.390Z,25.12
2023-01-11T09:24:26.351Z,24.88
2023-01-11T09:25:26.321Z,25.05
2023-01-11T09:26:26.283Z,24.91
2023-01-11T09:27:26.266Z,24.67
2023-01-11T09:28:26.234Z,24.63
2023-01-11T09:29:26.260Z,24.55
2023-01-11T09:30:26.223Z,24.22
2023-01-11T09:31:26.263Z,24.69
2023-01-11T09:32:26.141Z,25.25
2023-01-11T09:33:26.099Z,25.73
2023-01-11T09:34:26.065Z,25.63
2023-01-11T09:35:26.064Z,25.73
2023-01-11T09:36:26.045Z,25.67
2023-01-11T09:37:26.022Z,25.59
2023-01-11T09:38:25.993Z,25.93
2023-01-11T09:39:25.950Z,25.86
2023-01-11T09:40:25.964Z,26.14
2023-01-11T09:41:25.913Z,25.79
2023-01-11T09:42:25.901Z,25.98
2023-01-11T09:43:25.905Z,26.83
2023-01-11T09:44:25.824Z,27.10
2023-01-11T09:45:25.788Z,27.06
2023-01-11T09:46:25.787Z,27.16
2023-01-11T09:47:25.753Z,27.34
2023-01-11T09:48:25.704Z,24.40
2023-01-11T09:49:25.679Z,22.50
2023-01-11T09:50:25.679Z,22.18
2023-01-11T09:51:25.663Z,22.93
2023-01-11T09:52:25.654Z,23.65
2023-01-11T09:53:25.657Z,24.04
2023-01-11T09:54:25.618Z,24.33
2023-01-11T09:55:25.654Z,24.89
2023-01-11T09:56:25.669Z,25.32
2023-01-11T09:57:25.620Z,24.99
2023-01-11T09:58:25.668Z,25.78
2023-01-11T09:59:25.606Z,26.22
2023-01-11T10:00:25.714Z,26.42
2023-01-11T10:01:25.555Z,26.71
2023-01-11T10:02:25.636Z,26.97
2023-01-11T10:03:25.538Z,26.83
2023-01-11T10:04:25.542Z,26.95
2023-01-11T10:05:25.492Z,27.05
2023-01-11T10:06:25.448Z,27.17
2023-01-11T10:07:25.466Z,26.92
2023-01-11T10:18:28.736Z,27.97
2023-01-11T10:18:29.107Z,28.13
2023-01-11T10:18:30.455Z,27.57
2023-01-11T10:18:37.591Z,27.88
2023-01-11T10:18:49.436Z,28.22
2023-01-11T10:19:39.950Z,28.00
2023-01-11T10:20:26.390Z,27.49
2023-01-11T10:21:25.282Z,26.66
2023-01-11T10:22:25.267Z,26.26
2023-01-11T10:23:25.233Z,25.81
2023-01-11T10:24:25.203Z,25.78
2023-01-11T10:25:25.196Z,25.34
2023-01-11T10:26:25.154Z,24.75
2023-01-11T10:27:25.166Z,24.99
2023-01-11T10:28:25.139Z,24.81
2023-01-11T10:29:25.088Z,25.02
2023-01-11T10:30:25.080Z,24.66
2023-01-11T10:31:25.101Z,25.00
2023-01-11T10:32:25.005Z,24.72
2023-01-11T10:33:24.991Z,24.74
2023-01-11T10:34:24.963Z,25.59
2023-01-11T10:35:25.052Z,25.20
2023-01-11T10:36:24.919Z,25.22
2023-01-11T10:37:25.492Z,24.85
2023-01-11T10:38:24.906Z,25.02
2023-01-11T10:39:24.916Z,25.22
2023-01-11T10:40:24.851Z,25.15
2023-01-11T10:41:24.814Z,25.37
2023-01-11T10:42:24.783Z,25.75
2023-01-11T10:43:24.755Z,25.33
2023-01-11T10:44:24.757Z,25.90
2023-01-11T10:45:24.745Z,26.26
2023-01-11T10:46:24.697Z,26.44
2023-01-11T10:47:24.715Z,26.48
2023-01-11T10:48:24.694Z,25.81
2023-01-11T10:49:24.649Z,25.70
2023-01-11T10:50:24.615Z,25.64
2023-01-11T10:51:24.601Z,25.59
2023-01-11T10:52:24.561Z,25.70
2023-01-11T10:53:24.566Z,25.60
2023-01-11T10:54:24.523Z,25.56
2023-01-11T10:55:24.484Z,25.53
2023-01-11T10:56:24.522Z,25.51
2023-01-11T10:57:24.442Z,25.41
2023-01-11T11:08:24.205Z,25.18
2023-01-11T11:13:24.115Z,24.98
2023-01-11T11:37:23.405Z,24.99
2023-01-11T11:38:23.383Z,24.98
2023-01-11T11:39:23.379Z,24.98
2023-01-11T11:40:23.311Z,24.95
2023-01-11T11:41:23.287Z,25.04
2023-01-11T11:42:23.251Z,25.02
2023-01-11T11:43:23.212Z,24.99
2023-01-11T11:44:23.201Z,24.97
2023-01-11T11:45:23.178Z,24.98
2023-01-11T11:46:23.175Z,25.01
2023-01-11T11:47:23.073Z,24.98
2023-01-11T11:48:23.037Z,25.03
2023-01-11T11:49:23.010Z,25.08
2023-01-11T11:50:42.388Z,25.03
2023-01-11T11:51:23.960Z,25.03
2023-01-11T11:52:22.908Z,25.05
2023-01-11T11:53:22.881Z,25.00
2023-01-11T11:54:22.862Z,24.98
2023-01-11T11:55:22.815Z,25.03
2023-01-11T11:56:22.787Z,24.99
2023-01-11T11:57:22.771Z,24.96
2023-01-11T11:58:22.694Z,24.90
2023-01-11T11:59:22.689Z,24.92
2023-01-11T12:00:22.640Z,24.86
2023-01-11T12:01:22.604Z,24.85
2023-01-11T12:02:22.609Z,24.87
2023-01-11T12:03:22.506Z,24.83
2023-01-11T12:04:22.565Z,24.86
2023-01-11T12:05:22.453Z,24.85
2023-01-11T12:06:22.393Z,24.84
2023-01-11T12:07:22.334Z,24.85
2023-01-11T12:08:22.331Z,24.93
2023-01-11T12:09:22.290Z,24.95
2023-01-11T12:10:22.241Z,24.89
2023-01-11T12:11:22.188Z,24.89
2023-01-11T12:12:24.952Z,24.91
2023-01-11T12:13:22.136Z,24.94
2023-01-11T12:14:22.123Z,24.89
2023-01-11T12:15:22.075Z,24.93
2023-01-11T12:16:22.048Z,24.89
2023-01-11T12:17:21.979Z,24.85
2023-01-11T12:18:21.923Z,24.84
2023-01-11T12:19:21.889Z,24.84
2023-01-11T12:20:21.859Z,24.78
2023-01-11T12:21:21.831Z,24.79
2023-01-11T12:22:21.789Z,24.76
2023-01-11T12:23:21.774Z,24.67
2023-01-11T12:24:21.800Z,24.70
2023-01-11T12:25:21.695Z,24.59
2023-01-11T12:26:21.680Z,24.59
2023-01-11T12:27:21.731Z,24.51
2023-01-11T12:28:21.582Z,24.44
2023-01-11T12:29:21.610Z,24.37
2023-01-11T12:30:21.526Z,24.36
2023-01-11T12:31:21.514Z,24.26
2023-01-11T12:32:21.484Z,24.27
2023-01-11T12:33:21.459Z,24.29
2023-01-11T12:34:21.500Z,24.30
2023-01-11T12:35:21.426Z,24.29
2023-01-11T12:36:21.384Z,24.30
2023-01-11T12:37:21.300Z,24.31
2023-01-11T12:38:21.272Z,24.23
2023-01-11T12:39:21.254Z,24.28
2023-01-11T12:40:21.214Z,24.31
2023-01-11T12:41:21.237Z,24.35
2023-01-11T12:42:21.161Z,24.41
2023-01-11T12:43:21.147Z,24.42
2023-01-11T12:44:21.253Z,24.44
2023-01-11T12:45:21.078Z,24.46
2023-01-11T12:46:21.242Z,24.47
2023-01-11T12:47:21.020Z,24.46
2023-01-11T12:48:21.001Z,24.54
2023-01-11T12:49:20.960Z,24.55
2023-01-11T12:50:20.931Z,24.60
2023-01-11T12:51:20.896Z,24.60
2023-01-11T12:52:20.871Z,24.65
2023-01-11T12:53:20.822Z,24.75
2023-01-11T12:54:20.921Z,24.79
2023-01-11T12:55:20.814Z,24.79
2023-01-11T12:56:20.761Z,24.80
2023-01-11T12:57:20.698Z,24.85
2023-01-11T12:58:20.677Z,24.95
2023-01-11T12:59:20.629Z,24.89
2023-01-11T13:00:20.622Z,24.93
2023-01-11T13:01:20.660Z,24.94
2023-01-11T13:02:20.585Z,25.03
2023-01-11T13:03:20.505Z,25.00
2023-01-11T13:04:20.561Z,25.08
2023-01-11T13:05:20.455Z,25.57
2023-01-11T13:06:20.429Z,25.64
2023-01-11T13:07:20.401Z,25.63
2023-01-11T13:08:20.363Z,25.56
2023-01-11T13:09:20.311Z,25.65
2023-01-11T13:10:20.348Z,25.66
2023-01-11T13:11:20.254Z,25.70
2023-01-11T13:12:20.242Z,25.73
2023-01-11T13:13:20.196Z,25.82
2023-01-11T13:14:22.203Z,25.95
2023-01-11T13:15:20.116Z,26.03
2023-01-11T13:16:20.167Z,26.22
2023-01-11T13:17:20.059Z,26.32
2023-01-11T13:18:20.050Z,26.30
2023-01-11T13:19:20.005Z,26.35
2023-01-11T13:20:19.977Z,26.38
2023-01-11T13:21:19.981Z,26.41
2023-01-11T13:22:19.937Z,26.47
2023-01-11T13:23:19.897Z,26.57
2023-01-11T13:24:19.948Z,26.61
2023-01-11T13:25:19.857Z,26.61
2023-01-11T13:26:19.904Z,26.59
2023-01-11T13:27:19.914Z,26.58
2023-01-11T13:28:24.007Z,26.62
2023-01-11T13:29:19.800Z,26.68
2023-01-11T13:30:19.785Z,26.71
2023-01-11T13:31:19.855Z,26.71
2023-01-11T13:32:19.700Z,26.74
2023-01-11T13:33:19.676Z,26.77
2023-01-11T13:34:19.688Z,26.75
2023-01-11T13:35:19.612Z,26.77
2023-01-11T13:36:23.718Z,26.83
2023-01-11T13:37:19.564Z,26.84
2023-01-11T13:38:19.508Z,26.86
2023-01-11T13:39:19.559Z,26.90
2023-01-11T13:40:19.440Z,26.92
2023-01-11T13:41:19.426Z,26.93
2023-01-11T13:42:19.446Z,26.96
2023-01-11T13:43:19.374Z,26.99
2023-01-11T13:44:19.413Z,27.01
2023-01-11T13:45:19.302Z,27.01
2023-01-11T13:46:19.347Z,27.02
2023-01-11T13:47:20.062Z,27.03
2023-01-11T13:48:19.199Z,27.07
2023-01-11T13:49:19.314Z,27.12
2023-01-11T13:50:19.142Z,27.13
2023-01-11T13:51:20.050Z,27.24
2023-01-11T13:52:19.057Z,27.26
2023-01-11T13:53:19.058Z,27.30
2023-01-11T13:54:19.036Z,27.32
2023-01-11T13:55:26.128Z,27.35
2023-01-11T13:56:19.964Z,27.37
2023-01-11T13:57:18.899Z,27.39
2023-01-11T13:58:18.880Z,27.44
2023-01-11T13:59:18.853Z,27.45
2023-01-11T14:00:18.819Z,27.47
2023-01-11T14:01:18.803Z,27.48
2023-01-11T14:02:18.742Z,27.51
2023-01-11T14:03:18.779Z,27.54
2023-01-11T14:04:18.748Z,27.57
2023-01-11T14:05:18.663Z,27.60
2023-01-11T14:06:18.597Z,27.62
2023-01-11T14:07:18.606Z,27.64
2023-01-11T14:08:18.558Z,27.68
2023-01-11T14:09:18.537Z,27.71
2023-01-11T14:10:18.503Z,27.74
2023-01-11T14:11:18.455Z,27.75
2023-01-11T14:12:18.441Z,27.78
2023-01-11T14:13:18.441Z,27.79
2023-01-11T14:14:18.489Z,27.81
2023-01-11T14:15:18.334Z,27.84
2023-01-11T14:16:18.321Z,27.86
2023-01-11T14:17:18.268Z,27.88
2023-01-11T14:18:18.268Z,27.92
2023-01-11T14:19:18.221Z,27.93
2023-01-11T14:20:18.221Z,27.96
2023-01-11T14:21:18.139Z,27.96
2023-01-11T14:22:18.089Z,28.02
2023-01-11T14:23:18.122Z,28.00
2023-01-11T14:24:18.030Z,28.04
2023-01-11T14:25:18.007Z,28.09
2023-01-11T14:26:18.177Z,28.10
2023-01-11T14:27:17.992Z,28.10
2023-01-11T14:28:17.909Z,28.14
2023-01-11T14:29:17.886Z,28.14
2023-01-11T14:30:17.837Z,28.14
2023-01-11T14:31:17.890Z,28.20
2023-01-11T14:32:17.785Z,28.19
2023-01-11T14:33:17.736Z,28.20
2023-01-11T14:34:17.795Z,28.22
2023-01-11T14:35:17.695Z,28.25
2023-01-11T14:36:17.646Z,28.25
2023-01-11T14:37:17.620Z,28.30
2023-01-11T14:38:17.593Z,28.30
2023-01-11T14:39:17.577Z,28.34
2023-01-11T14:40:17.523Z,28.36
2023-01-11T14:41:17.485Z,28.38
2023-01-11T14:42:30.428Z,28.39
2023-01-11T14:43:18.417Z,28.43
2023-01-11T14:44:17.450Z,28.41
2023-01-11T14:45:17.341Z,28.44
2023-01-11T14:46:17.394Z,28.46
2023-01-11T14:47:17.252Z,28.48
2023-01-11T14:48:17.224Z,28.52
2023-01-11T14:49:17.313Z,28.52
2023-01-11T14:50:17.168Z,28.54
2023-01-11T14:51:17.135Z,28.54
2023-01-11T14:52:18.589Z,28.55
2023-01-11T14:53:17.059Z,28.60
2023-01-11T14:54:17.086Z,28.65
2023-01-11T14:55:16.969Z,28.65
2023-01-11T14:56:16.909Z,28.62
2023-01-11T14:57:16.886Z,28.64
2023-01-11T14:58:16.813Z,28.69
2023-01-11T14:59:16.808Z,28.70
2023-01-11T15:00:16.780Z,28.73
2023-01-11T15:01:16.748Z,28.76
2023-01-11T15:02:16.747Z,28.75
2023-01-11T15:03:16.710Z,28.76
2023-01-11T15:04:16.734Z,28.77
2023-01-11T15:05:16.692Z,28.79
2023-01-11T15:06:16.584Z,28.80
2023-01-11T15:07:16.529Z,28.83
2023-01-11T15:08:16.496Z,28.84
2023-01-11T15:09:16.469Z,28.83
2023-01-11T15:10:16.426Z,28.89
2023-01-11T15:11:16.384Z,28.91
2023-01-11T15:12:16.385Z,28.93
2023-01-11T15:13:16.364Z,28.92
2023-01-11T15:14:16.353Z,28.95
2023-01-11T15:15:16.255Z,28.95
2023-01-11T15:16:16.272Z,28.97
2023-01-11T15:17:16.186Z,28.99
2023-01-11T15:18:16.154Z,29.00
2023-01-11T15:19:16.120Z,29.02
2023-01-11T15:20:16.094Z,29.01
2023-01-11T15:21:16.138Z,29.04
2023-01-11T15:22:16.037Z,29.07
2023-01-11T15:23:15.999Z,29.08
2023-01-11T15:24:15.983Z,29.09
2023-01-11T15:25:15.911Z,29.12
2023-01-11T15:26:15.876Z,29.11
2023-01-11T15:27:15.913Z,29.12
2023-01-11T15:28:15.833Z,29.12
2023-01-11T15:29:15.780Z,29.15
2023-01-11T15:30:15.746Z,29.15
2023-01-11T15:31:15.760Z,29.17
2023-01-11T15:32:15.663Z,29.18
2023-01-11T15:33:15.681Z,29.19
2023-01-11T15:34:15.604Z,29.19
2023-01-11T15:35:15.603Z,29.23
2023-01-11T15:36:15.574Z,29.24
2023-01-11T15:37:15.531Z,29.24
2023-01-11T15:38:15.492Z,29.27
2023-01-11T15:39:15.472Z,29.29
2023-01-11T15:40:15.443Z,29.30
2023-01-11T15:41:15.400Z,29.30
2023-01-11T15:42:15.362Z,29.32
2023-01-11T15:43:15.326Z,29.33
2023-01-11T15:44:15.292Z,29.32
2023-01-11T15:45:15.293Z,29.33
2023-01-11T15:46:15.283Z,29.34
2023-01-11T15:47:15.206Z,29.34
2023-01-11T15:48:15.174Z,29.38
2023-01-11T15:49:15.156Z,29.38
2023-01-11T15:50:15.121Z,29.40
2023-01-11T15:51:15.077Z,29.39
2023-01-11T15:52:15.061Z,29.41
2023-01-11T15:53:15.070Z,29.44
2023-01-11T15:54:14.991Z,29.46
2023-01-11T15:55:14.979Z,29.46
2023-01-11T15:56:14.977Z,29.48
2023-01-11T15:57:14.908Z,29.46
2023-01-11T15:58:14.881Z,29.52
2023-01-11T15:59:14.848Z,29.50
2023-01-11T16:00:14.824Z,29.51
2023-01-11T16:01:14.833Z,29.52
2023-01-11T16:02:14.769Z,29.53
2023-01-11T16:03:14.752Z,29.52
2023-01-11T16:04:14.784Z,29.54
2023-01-11T16:05:14.688Z,29.55
2023-01-11T16:06:14.704Z,29.54
2023-01-11T16:07:14.658Z,29.56
2023-01-11T16:08:14.631Z,29.57
2023-01-11T16:09:14.705Z,29.60
2023-01-11T16:10:14.630Z,29.62
2023-01-11T16:11:14.595Z,29.63
2023-01-11T16:12:14.559Z,29.63
2023-01-11T16:13:14.530Z,29.63
2023-01-11T16:14:14.503Z,29.66
2023-01-11T16:15:14.490Z,29.64
2023-01-11T16:16:14.557Z,29.65
2023-01-11T16:17:14.443Z,29.66
2023-01-11T16:18:14.406Z,29.66
2023-01-11T16:19:14.390Z,29.70
2023-01-11T16:20:14.356Z,29.69
2023-01-11T16:21:14.330Z,29.70
2023-01-11T16:22:14.289Z,29.74
2023-01-11T16:23:14.232Z,29.73
2023-01-11T16:24:14.228Z,29.74
2023-01-11T16:25:14.203Z,29.72
2023-01-11T16:26:14.152Z,29.74
2023-01-11T16:27:14.150Z,29.71
2023-01-11T16:28:14.084Z,29.77
2023-01-11T16:29:14.064Z,29.79
2023-01-11T16:30:14.013Z,29.78
2023-01-11T16:31:14.005Z,29.79
2023-01-11T16:32:13.936Z,29.80
2023-01-11T16:33:13.904Z,29.81
2023-01-11T16:34:13.867Z,29.83
2023-01-11T16:35:13.814Z,29.84
2023-01-11T16:36:13.792Z,29.86
2023-01-11T16:37:13.757Z,29.87
2023-01-11T16:38:13.723Z,29.86
2023-01-11T16:39:13.696Z,29.88
2023-01-11T16:40:13.629Z,29.92
2023-01-11T16:41:13.626Z,29.92
2023-01-11T16:42:13.583Z,29.93
2023-01-11T16:43:13.542Z,29.92
2023-01-11T16:44:13.497Z,29.92
2023-01-11T16:45:13.623Z,29.96
2023-01-11T16:46:13.526Z,29.98
2023-01-11T16:47:13.430Z,29.96
2023-01-11T16:48:13.408Z,29.98
2023-01-11T16:49:13.372Z,29.99
2023-01-11T16:50:13.337Z,30.01
2023-01-11T16:51:13.308Z,30.01
2023-01-11T16:52:13.286Z,30.02
2023-01-11T16:53:13.246Z,30.03
2023-01-11T16:54:13.341Z,30.04
2023-01-11T16:55:13.224Z,30.06
2023-01-11T16:56:13.179Z,30.07
2023-01-11T16:57:15.103Z,30.09
2023-01-11T16:58:13.133Z,30.09
2023-01-11T16:59:13.087Z,30.12
2023-01-11T17:00:13.073Z,30.09
2023-01-11T17:01:13.132Z,30.12
2023-01-11T17:02:13.076Z,30.12
2023-01-11T17:03:12.993Z,30.11
2023-01-11T17:04:19.213Z,30.13
2023-01-11T17:05:13.943Z,30.16
2023-01-11T17:06:12.909Z,30.14
2023-01-11T17:07:12.896Z,30.16
2023-01-11T17:08:12.892Z,30.17
2023-01-11T17:09:19.437Z,30.18
2023-01-11T17:10:13.840Z,30.20
2023-01-11T17:11:12.806Z,30.20
2023-01-11T17:12:12.833Z,30.21
2023-01-11T17:13:12.749Z,30.22
2023-01-11T17:14:12.741Z,30.24
2023-01-11T17:15:12.687Z,30.26
2023-01-11T17:16:12.718Z,30.25
2023-01-11T17:17:12.951Z,30.23
2023-01-11T17:18:12.595Z,30.26
2023-01-11T17:19:12.546Z,30.22
2023-01-11T17:20:12.519Z,30.25
2023-01-11T17:21:12.494Z,30.24
2023-01-11T17:22:12.459Z,30.28
2023-01-11T17:23:12.415Z,30.25
2023-01-11T17:24:12.395Z,30.25
2023-01-11T17:25:12.346Z,30.25
2023-01-11T17:26:14.809Z,30.26
2023-01-11T17:27:12.537Z,30.28
2023-01-11T17:28:12.485Z,30.26
2023-01-11T17:29:12.477Z,30.28
2023-01-11T17:30:12.420Z,30.28
2023-01-11T17:31:12.388Z,30.30
2023-01-11T17:32:12.365Z,30.28
2023-01-11T17:33:12.344Z,30.31
2023-01-11T17:34:12.354Z,30.32
2023-01-11T17:35:12.397Z,30.33
2023-01-11T17:36:12.401Z,30.32
2023-01-11T17:37:12.447Z,30.33
2023-01-11T17:38:12.494Z,30.32
2023-01-11T17:39:12.501Z,30.33
2023-01-11T17:40:12.526Z,30.33
2023-01-11T17:41:12.616Z,30.37
2023-01-11T17:42:12.597Z,30.37
2023-01-11T17:43:12.634Z,30.38
2023-01-11T17:44:12.655Z,30.38
2023-01-11T17:45:12.695Z,30.40
2023-01-11T17:46:12.730Z,30.40
2023-01-11T17:47:12.749Z,30.40
2023-01-11T17:48:12.772Z,30.41
2023-01-11T17:49:12.806Z,30.40
2023-01-11T17:50:14.699Z,30.40
2023-01-11T17:51:12.818Z,30.40
2023-01-11T17:52:12.780Z,30.42
2023-01-11T17:53:12.791Z,30.43
2023-01-11T17:54:12.722Z,30.48
2023-01-11T17:55:12.703Z,30.46
2023-01-11T17:56:12.664Z,30.43
2023-01-11T17:57:12.643Z,30.45
2023-01-11T17:58:12.680Z,30.47
2023-01-11T17:59:12.682Z,30.46
2023-01-11T18:00:12.719Z,30.48
2023-01-11T18:01:12.807Z,30.48
2023-01-11T18:02:12.810Z,30.47
2023-01-11T18:03:12.826Z,30.51
2023-01-11T18:04:12.848Z,30.50
2023-01-11T18:05:12.879Z,30.49
2023-01-11T18:06:12.908Z,30.49
2023-01-11T18:07:12.954Z,30.48
2023-01-11T18:08:12.974Z,30.48
2023-01-11T18:09:13.014Z,30.48
2023-01-11T18:10:13.018Z,30.50
2023-01-11T18:11:13.062Z,30.51
2023-01-11T18:12:13.099Z,30.53
2023-01-11T18:13:13.121Z,30.54
2023-01-11T18:14:13.193Z,30.53
2023-01-11T18:15:13.194Z,30.52
2023-01-11T18:16:13.237Z,30.52
2023-01-11T18:17:13.262Z,30.55
2023-01-11T18:18:13.275Z,30.54
2023-01-11T18:19:13.331Z,30.59
2023-01-11T18:20:13.345Z,30.60
2023-01-11T18:21:13.375Z,30.58
2023-01-11T18:22:13.408Z,30.56
2023-01-11T18:23:13.450Z,30.55
2023-01-11T18:24:13.474Z,30.58
2023-01-11T18:25:13.508Z,30.59
2023-01-11T18:26:13.522Z,30.61
2023-01-11T18:27:13.634Z,30.62
2023-01-11T18:28:13.582Z,30.59
2023-01-11T18:29:13.622Z,30.59
2023-01-11T18:30:13.646Z,30.61
2023-01-11T18:31:13.707Z,30.60
2023-01-11T18:32:13.710Z,30.61
2023-01-11T18:33:13.741Z,30.63
2023-01-11T18:34:13.797Z,30.61
2023-01-11T18:35:13.790Z,30.62
2023-01-11T18:36:13.839Z,30.61
2023-01-11T18:37:13.865Z,30.63
2023-01-11T18:38:13.876Z,30.66
2023-01-11T18:39:13.922Z,30.67
2023-01-11T18:40:13.933Z,30.67
2023-01-11T18:41:13.976Z,30.66
2023-01-11T18:42:14.000Z,30.70
2023-01-11T18:43:14.055Z,30.67
2023-01-11T18:44:14.061Z,30.69
2023-01-11T18:45:14.159Z,30.70
2023-01-11T18:46:14.151Z,30.73
2023-01-11T18:47:14.179Z,30.72
2023-01-11T18:48:14.195Z,30.71
2023-01-11T18:49:14.344Z,30.71
2023-01-11T18:50:14.267Z,30.72
2023-01-11T18:51:14.306Z,30.70
2023-01-11T18:52:14.318Z,30.71
2023-01-11T18:53:14.356Z,30.70
2023-01-11T18:54:14.412Z,30.71
2023-01-11T18:55:14.438Z,30.71
2023-01-11T18:56:14.439Z,30.73
2023-01-11T18:57:14.486Z,30.73
2023-01-11T18:58:14.518Z,30.72
2023-01-11T18:59:14.560Z,30.71
2023-01-11T19:00:14.574Z,30.73
2023-01-11T19:01:14.702Z,30.74
2023-01-11T19:02:17.236Z,30.73
2023-01-11T19:04:14.601Z,30.76
2023-01-11T19:05:14.572Z,30.74
2023-01-11T19:06:14.546Z,30.76
2023-01-11T19:07:14.524Z,30.75
2023-01-11T19:08:14.491Z,30.78
2023-01-11T19:09:14.483Z,30.77
2023-01-11T19:10:14.472Z,30.79
2023-01-11T19:11:14.429Z,30.77
2023-01-11T19:12:14.405Z,30.77
2023-01-11T19:13:14.386Z,30.78
2023-01-11T19:14:14.353Z,30.79
2023-01-11T19:15:14.331Z,30.78